sensor_id;sensor_type;location;lat;lon;timestamp;temperature;humidity
10384;DHT22;5238;43.508;4.980;2023-04-08T00:02:19;13.20;91.30
10384;DHT22;5238;43.508;4.980;2023-04-08T00:04:51;13.20;91.30
10384;DHT22;5238;43.508;4.980;2023-04-08T00:07:19;13.20;91.30
10384;DHT22;5238;43.508;4.980;2023-04-08T00:09:49;13.20;91.30
10384;DHT22;5238;43.508;4.980;2023-04-08T00:12:16;13.20;91.30
10384;DHT22;5238;43.508;4.980;2023-04-08T00:14:44;13.10;91.30
10384;DHT22;5238;43.508;4.980;2023-04-08T00:17:15;13.10;91.30
10384;DHT22;5238;43.508;4.980;2023-04-08T00:19:42;13.10;91.30
10384;DHT22;5238;43.508;4.980;2023-04-08T00:22:11;13.10;91.30
10384;DHT22;5238;43.508;4.980;2023-04-08T00:24:42;13.00;91.30
10384;DHT22;5238;43.508;4.980;2023-04-08T00:27:15;13.00;91.30
10384;DHT22;5238;43.508;4.980;2023-04-08T00:29:45;13.00;91.30
10384;DHT22;5238;43.508;4.980;2023-04-08T00:32:15;13.00;91.30
10384;DHT22;5238;43.508;4.980;2023-04-08T00:34:42;12.90;91.30
10384;DHT22;5238;43.508;4.980;2023-04-08T00:37:10;12.90;91.30
10384;DHT22;5238;43.508;4.980;2023-04-08T00:39:37;12.90;91.30
10384;DHT22;5238;43.508;4.980;2023-04-08T00:42:05;12.90;91.30
10384;DHT22;5238;43.508;4.980;2023-04-08T00:44:32;12.90;91.30
10384;DHT22;5238;43.508;4.980;2023-04-08T00:47:01;12.90;91.30
10384;DHT22;5238;43.508;4.980;2023-04-08T00:49:38;12.90;91.30
10384;DHT22;5238;43.508;4.980;2023-04-08T00:52:05;12.90;91.30
10384;DHT22;5238;43.508;4.980;2023-04-08T00:54:34;13.00;91.30
10384;DHT22;5238;43.508;4.980;2023-04-08T00:57:03;12.90;91.30
10384;DHT22;5238;43.508;4.980;2023-04-08T00:59:32;12.80;91.30
10384;DHT22;5238;43.508;4.980;2023-04-08T01:02:17;12.80;91.30
10384;DHT22;5238;43.508;4.980;2023-04-08T01:05:04;12.70;91.30
10384;DHT22;5238;43.508;4.980;2023-04-08T01:07:53;12.70;91.30
10384;DHT22;5238;43.508;4.980;2023-04-08T01:10:29;12.60;91.30
10384;DHT22;5238;43.508;4.980;2023-04-08T01:13:00;12.60;91.30
10384;DHT22;5238;43.508;4.980;2023-04-08T01:15:29;12.50;91.30
10384;DHT22;5238;43.508;4.980;2023-04-08T01:18:05;12.50;91.30
10384;DHT22;5238;43.508;4.980;2023-04-08T01:20:35;12.50;91.30
10384;DHT22;5238;43.508;4.980;2023-04-08T01:23:17;12.40;91.30
10384;DHT22;5238;43.508;4.980;2023-04-08T01:25:49;12.40;91.30
10384;DHT22;5238;43.508;4.980;2023-04-08T01:28:24;12.40;91.30
10384;DHT22;5238;43.508;4.980;2023-04-08T01:30:56;12.40;91.30
10384;DHT22;5238;43.508;4.980;2023-04-08T01:36:47;12.40;91.30
10384;DHT22;5238;43.508;4.980;2023-04-08T01:39:14;12.40;91.30
10384;DHT22;5238;43.508;4.980;2023-04-08T01:41:46;12.40;91.30
10384;DHT22;5238;43.508;4.980;2023-04-08T01:44:15;12.40;91.30
10384;DHT22;5238;43.508;4.980;2023-04-08T01:46:43;12.30;91.30
10384;DHT22;5238;43.508;4.980;2023-04-08T01:49:10;12.30;91.30
10384;DHT22;5238;43.508;4.980;2023-04-08T01:51:40;12.20;91.30
10384;DHT22;5238;43.508;4.980;2023-04-08T01:54:08;12.20;91.30
10384;DHT22;5238;43.508;4.980;2023-04-08T01:56:53;12.20;91.30
10384;DHT22;5238;43.508;4.980;2023-04-08T01:59:23;12.10;91.30
10384;DHT22;5238;43.508;4.980;2023-04-08T02:01:54;12.10;91.30
10384;DHT22;5238;43.508;4.980;2023-04-08T02:04:23;12.20;91.30
10384;DHT22;5238;43.508;4.980;2023-04-08T02:06:50;12.20;91.30
10384;DHT22;5238;43.508;4.980;2023-04-08T02:09:20;12.10;91.30
10384;DHT22;5238;43.508;4.980;2023-04-08T02:11:47;12.20;91.30
10384;DHT22;5238;43.508;4.980;2023-04-08T02:14:16;12.10;91.30
10384;DHT22;5238;43.508;4.980;2023-04-08T02:17:08;12.10;91.30
10384;DHT22;5238;43.508;4.980;2023-04-08T02:19:42;12.10;91.30
10384;DHT22;5238;43.508;4.980;2023-04-08T02:22:13;12.00;91.30
10384;DHT22;5238;43.508;4.980;2023-04-08T02:24:52;12.00;91.30
10384;DHT22;5238;43.508;4.980;2023-04-08T02:27:19;12.00;91.30
10384;DHT22;5238;43.508;4.980;2023-04-08T02:29:50;12.00;91.30
10384;DHT22;5238;43.508;4.980;2023-04-08T02:32:22;11.90;91.30
10384;DHT22;5238;43.508;4.980;2023-04-08T02:34:50;11.90;91.30
10384;DHT22;5238;43.508;4.980;2023-04-08T02:37:22;11.90;91.30
10384;DHT22;5238;43.508;4.980;2023-04-08T02:39:49;11.90;91.30
10384;DHT22;5238;43.508;4.980;2023-04-08T02:42:18;11.80;91.30
10384;DHT22;5238;43.508;4.980;2023-04-08T02:45:01;11.80;91.30
10384;DHT22;5238;43.508;4.980;2023-04-08T02:47:28;11.80;91.30
10384;DHT22;5238;43.508;4.980;2023-04-08T02:49:55;11.70;91.30
10384;DHT22;5238;43.508;4.980;2023-04-08T02:52:28;11.70;91.30
10384;DHT22;5238;43.508;4.980;2023-04-08T02:54:55;11.60;91.30
10384;DHT22;5238;43.508;4.980;2023-04-08T02:57:26;11.60;91.30
10384;DHT22;5238;43.508;4.980;2023-04-08T03:00:06;11.50;91.30
10384;DHT22;5238;43.508;4.980;2023-04-08T03:02:35;11.40;91.30
10384;DHT22;5238;43.508;4.980;2023-04-08T03:05:08;11.40;91.30
10384;DHT22;5238;43.508;4.980;2023-04-08T03:07:35;11.30;91.30
10384;DHT22;5238;43.508;4.980;2023-04-08T03:10:11;11.30;91.30
10384;DHT22;5238;43.508;4.980;2023-04-08T03:12:39;11.30;91.30
10384;DHT22;5238;43.508;4.980;2023-04-08T03:15:08;11.30;91.30
10384;DHT22;5238;43.508;4.980;2023-04-08T03:17:42;11.30;91.30
10384;DHT22;5238;43.508;4.980;2023-04-08T03:20:11;11.30;91.30
10384;DHT22;5238;43.508;4.980;2023-04-08T03:22:38;11.30;91.30
10384;DHT22;5238;43.508;4.980;2023-04-08T03:25:08;11.30;91.30
10384;DHT22;5238;43.508;4.980;2023-04-08T03:27:37;11.30;91.30
10384;DHT22;5238;43.508;4.980;2023-04-08T03:30:08;11.30;91.30
10384;DHT22;5238;43.508;4.980;2023-04-08T03:32:36;11.30;91.30
10384;DHT22;5238;43.508;4.980;2023-04-08T03:35:03;11.20;91.30
10384;DHT22;5238;43.508;4.980;2023-04-08T03:37:34;11.20;91.30
10384;DHT22;5238;43.508;4.980;2023-04-08T03:40:02;11.10;91.30
10384;DHT22;5238;43.508;4.980;2023-04-08T03:42:31;11.10;91.30
10384;DHT22;5238;43.508;4.980;2023-04-08T03:55:10;11.00;91.30
10384;DHT22;5238;43.508;4.980;2023-04-08T03:57:45;10.90;91.30
10384;DHT22;5238;43.508;4.980;2023-04-08T04:00:13;10.90;91.30
10384;DHT22;5238;43.508;4.980;2023-04-08T04:02:40;10.90;91.30
10384;DHT22;5238;43.508;4.980;2023-04-08T04:05:07;10.90;91.30
10384;DHT22;5238;43.508;4.980;2023-04-08T04:07:44;10.90;91.30
10384;DHT22;5238;43.508;4.980;2023-04-08T04:10:14;10.90;91.30
10384;DHT22;5238;43.508;4.980;2023-04-08T04:12:43;10.90;91.30
10384;DHT22;5238;43.508;4.980;2023-04-08T04:15:12;10.90;91.30
10384;DHT22;5238;43.508;4.980;2023-04-08T04:17:39;10.80;91.30
10384;DHT22;5238;43.508;4.980;2023-04-08T04:20:08;10.80;91.30
10384;DHT22;5238;43.508;4.980;2023-04-08T04:22:35;10.80;91.30
10384;DHT22;5238;43.508;4.980;2023-04-08T04:25:03;10.80;91.30
10384;DHT22;5238;43.508;4.980;2023-04-08T04:27:37;10.70;91.30
10384;DHT22;5238;43.508;4.980;2023-04-08T04:30:05;10.70;91.30
10384;DHT22;5238;43.508;4.980;2023-04-08T04:32:35;10.70;91.30
10384;DHT22;5238;43.508;4.980;2023-04-08T04:35:02;10.70;91.30
10384;DHT22;5238;43.508;4.980;2023-04-08T04:47:47;10.50;91.30
10384;DHT22;5238;43.508;4.980;2023-04-08T04:50:18;10.50;91.30
10384;DHT22;5238;43.508;4.980;2023-04-08T04:52:55;10.50;91.30
10384;DHT22;5238;43.508;4.980;2023-04-08T04:55:22;10.50;91.30
10384;DHT22;5238;43.508;4.980;2023-04-08T04:57:49;10.40;91.30
10384;DHT22;5238;43.508;4.980;2023-04-08T05:00:16;10.40;91.30
10384;DHT22;5238;43.508;4.980;2023-04-08T05:02:43;10.30;91.30
10384;DHT22;5238;43.508;4.980;2023-04-08T05:05:16;10.30;91.30
10384;DHT22;5238;43.508;4.980;2023-04-08T05:07:43;10.30;91.30
10384;DHT22;5238;43.508;4.980;2023-04-08T05:10:10;10.30;91.30
10384;DHT22;5238;43.508;4.980;2023-04-08T05:12:46;10.20;91.30
10384;DHT22;5238;43.508;4.980;2023-04-08T05:15:13;10.20;91.30
10384;DHT22;5238;43.508;4.980;2023-04-08T05:17:41;10.20;91.30
10384;DHT22;5238;43.508;4.980;2023-04-08T05:20:11;10.20;91.30
10384;DHT22;5238;43.508;4.980;2023-04-08T05:22:39;10.20;91.30
10384;DHT22;5238;43.508;4.980;2023-04-08T05:25:11;10.30;91.30
10384;DHT22;5238;43.508;4.980;2023-04-08T05:27:38;10.30;91.30
10384;DHT22;5238;43.508;4.980;2023-04-08T05:44:04;10.40;91.30
10384;DHT22;5238;43.508;4.980;2023-04-08T05:46:31;10.40;91.30
10384;DHT22;5238;43.508;4.980;2023-04-08T05:48:59;10.40;91.30
10384;DHT22;5238;43.508;4.980;2023-04-08T05:51:30;10.40;91.30
10384;DHT22;5238;43.508;4.980;2023-04-08T05:54:09;10.40;91.30
10384;DHT22;5238;43.508;4.980;2023-04-08T05:56:37;10.50;91.30
10384;DHT22;5238;43.508;4.980;2023-04-08T05:59:19;10.50;91.30
10384;DHT22;5238;43.508;4.980;2023-04-08T06:01:56;10.60;91.30
10384;DHT22;5238;43.508;4.980;2023-04-08T06:04:28;10.60;91.30
10384;DHT22;5238;43.508;4.980;2023-04-08T06:06:55;10.70;91.30
10384;DHT22;5238;43.508;4.980;2023-04-08T06:09:25;10.80;91.30
10384;DHT22;5238;43.508;4.980;2023-04-08T06:12:00;10.90;91.30
10384;DHT22;5238;43.508;4.980;2023-04-08T06:14:34;11.00;91.30
10384;DHT22;5238;43.508;4.980;2023-04-08T06:17:01;11.10;91.30
10384;DHT22;5238;43.508;4.980;2023-04-08T06:19:30;11.30;91.30
10384;DHT22;5238;43.508;4.980;2023-04-08T06:38:52;13.40;91.30
10384;DHT22;5238;43.508;4.980;2023-04-08T06:41:24;13.70;91.30
10384;DHT22;5238;43.508;4.980;2023-04-08T06:43:51;14.00;91.30
10384;DHT22;5238;43.508;4.980;2023-04-08T06:46:18;14.30;91.30
10384;DHT22;5238;43.508;4.980;2023-04-08T06:48:55;14.50;91.30
10384;DHT22;5238;43.508;4.980;2023-04-08T06:51:27;14.80;91.30
10384;DHT22;5238;43.508;4.980;2023-04-08T06:54:00;15.10;91.30
10384;DHT22;5238;43.508;4.980;2023-04-08T06:56:27;15.30;91.30
10384;DHT22;5238;43.508;4.980;2023-04-08T06:58:54;15.50;91.30
10384;DHT22;5238;43.508;4.980;2023-04-08T07:01:21;15.80;91.30
10384;DHT22;5238;43.508;4.980;2023-04-08T07:03:48;15.90;91.30
10384;DHT22;5238;43.508;4.980;2023-04-08T07:06:15;16.00;91.30
10384;DHT22;5238;43.508;4.980;2023-04-08T07:08:42;16.20;91.30
10384;DHT22;5238;43.508;4.980;2023-04-08T07:11:12;16.50;91.30
10384;DHT22;5238;43.508;4.980;2023-04-08T07:13:41;16.60;91.30
10384;DHT22;5238;43.508;4.980;2023-04-08T07:16:08;16.80;91.30
10384;DHT22;5238;43.508;4.980;2023-04-08T07:18:36;17.00;91.30
10384;DHT22;5238;43.508;4.980;2023-04-08T07:21:04;17.30;91.30
10384;DHT22;5238;43.508;4.980;2023-04-08T07:23:32;17.70;91.30
10384;DHT22;5238;43.508;4.980;2023-04-08T07:26:01;17.90;91.30
10384;DHT22;5238;43.508;4.980;2023-04-08T07:28:33;18.20;91.30
10384;DHT22;5238;43.508;4.980;2023-04-08T07:31:12;18.40;91.30
10384;DHT22;5238;43.508;4.980;2023-04-08T07:33:42;18.70;91.30
10384;DHT22;5238;43.508;4.980;2023-04-08T07:36:12;19.00;91.30
10384;DHT22;5238;43.508;4.980;2023-04-08T07:38:43;19.10;91.30
10384;DHT22;5238;43.508;4.980;2023-04-08T07:41:09;19.20;91.30
10384;DHT22;5238;43.508;4.980;2023-04-08T08:05:26;21.80;91.30
10384;DHT22;5238;43.508;4.980;2023-04-08T08:11:46;22.40;91.30
10384;DHT22;5238;43.508;4.980;2023-04-08T08:14:19;22.60;91.30
10384;DHT22;5238;43.508;4.980;2023-04-08T08:16:47;22.70;91.30
10384;DHT22;5238;43.508;4.980;2023-04-08T08:29:55;23.70;89.60
10384;DHT22;5238;43.508;4.980;2023-04-08T08:32:23;23.90;89.00
10384;DHT22;5238;43.508;4.980;2023-04-08T08:34:55;24.00;88.10
10384;DHT22;5238;43.508;4.980;2023-04-08T08:37:21;24.30;87.90
10384;DHT22;5238;43.508;4.980;2023-04-08T08:39:48;24.50;87.40
10384;DHT22;5238;43.508;4.980;2023-04-08T08:42:19;24.70;86.10
10384;DHT22;5238;43.508;4.980;2023-04-08T08:44:47;24.90;85.90
10384;DHT22;5238;43.508;4.980;2023-04-08T08:47:16;25.10;86.90
10384;DHT22;5238;43.508;4.980;2023-04-08T08:49:45;25.30;85.20
10384;DHT22;5238;43.508;4.980;2023-04-08T08:52:17;25.50;84.70
10384;DHT22;5238;43.508;4.980;2023-04-08T08:54:47;25.60;83.40
10384;DHT22;5238;43.508;4.980;2023-04-08T08:57:17;25.80;83.70
10384;DHT22;5238;43.508;4.980;2023-04-08T08:59:56;26.00;82.40
10384;DHT22;5238;43.508;4.980;2023-04-08T09:02:26;26.10;81.70
10384;DHT22;5238;43.508;4.980;2023-04-08T09:04:58;26.00;81.30
10384;DHT22;5238;43.508;4.980;2023-04-08T09:21:26;26.10;81.00
10384;DHT22;5238;43.508;4.980;2023-04-08T09:24:28;27.30;79.60
10384;DHT22;5238;43.508;4.980;2023-04-08T09:27:08;27.60;78.40
10384;DHT22;5238;43.508;4.980;2023-04-08T09:29:46;27.90;78.80
10384;DHT22;5238;43.508;4.980;2023-04-08T09:32:45;27.90;78.10
10384;DHT22;5238;43.508;4.980;2023-04-08T09:35:31;27.90;77.10
10384;DHT22;5238;43.508;4.980;2023-04-08T09:38:04;28.10;74.80
10384;DHT22;5238;43.508;4.980;2023-04-08T09:40:43;28.30;74.60
10384;DHT22;5238;43.508;4.980;2023-04-08T09:43:12;28.40;73.20
10384;DHT22;5238;43.508;4.980;2023-04-08T09:45:47;28.60;72.20
10384;DHT22;5238;43.508;4.980;2023-04-08T09:48:39;28.80;72.20
10384;DHT22;5238;43.508;4.980;2023-04-08T09:51:31;28.80;72.00
10384;DHT22;5238;43.508;4.980;2023-04-08T10:04:25;28.40;71.90
10384;DHT22;5238;43.508;4.980;2023-04-08T10:13:19;28.60;70.90
10384;DHT22;5238;43.508;4.980;2023-04-08T10:19:39;28.70;72.10
10384;DHT22;5238;43.508;4.980;2023-04-08T10:25:59;28.50;73.20
10384;DHT22;5238;43.508;4.980;2023-04-08T10:28:41;28.60;73.00
10384;DHT22;5238;43.508;4.980;2023-04-08T10:31:41;28.70;72.60
10384;DHT22;5238;43.508;4.980;2023-04-08T10:34:22;28.80;72.20
10384;DHT22;5238;43.508;4.980;2023-04-08T10:36:55;28.80;72.40
10384;DHT22;5238;43.508;4.980;2023-04-08T10:39:48;28.90;72.30
10384;DHT22;5238;43.508;4.980;2023-04-08T10:42:16;29.00;71.70
10384;DHT22;5238;43.508;4.980;2023-04-08T10:44:44;29.10;71.90
10384;DHT22;5238;43.508;4.980;2023-04-08T10:47:25;29.20;71.70
10384;DHT22;5238;43.508;4.980;2023-04-08T10:49:53;29.20;70.70
10384;DHT22;5238;43.508;4.980;2023-04-08T10:52:26;29.20;71.10
10384;DHT22;5238;43.508;4.980;2023-04-08T10:55:22;29.20;70.60
10384;DHT22;5238;43.508;4.980;2023-04-08T10:58:10;29.10;70.60
10384;DHT22;5238;43.508;4.980;2023-04-08T11:00:39;28.90;71.00
10384;DHT22;5238;43.508;4.980;2023-04-08T11:03:11;28.80;71.80
10384;DHT22;5238;43.508;4.980;2023-04-08T11:05:38;28.80;71.50
10384;DHT22;5238;43.508;4.980;2023-04-08T11:08:09;28.80;71.30
10384;DHT22;5238;43.508;4.980;2023-04-08T11:10:38;28.80;71.00
10384;DHT22;5238;43.508;4.980;2023-04-08T11:13:44;28.80;72.50
10384;DHT22;5238;43.508;4.980;2023-04-08T11:16:49;28.80;72.20
10384;DHT22;5238;43.508;4.980;2023-04-08T11:19:20;28.80;72.90
10384;DHT22;5238;43.508;4.980;2023-04-08T12:12:48;25.00;75.90
10384;DHT22;5238;43.508;4.980;2023-04-08T12:22:36;24.50;75.30
10384;DHT22;5238;43.508;4.980;2023-04-08T12:35:24;23.90;76.70
10384;DHT22;5238;43.508;4.980;2023-04-08T12:38:04;23.80;76.80
10384;DHT22;5238;43.508;4.980;2023-04-08T13:07:50;23.20;78.70
10384;DHT22;5238;43.508;4.980;2023-04-08T13:10:42;23.10;81.40
10384;DHT22;5238;43.508;4.980;2023-04-08T13:37:03;22.50;84.50
10384;DHT22;5238;43.508;4.980;2023-04-08T13:39:55;22.40;85.90
10384;DHT22;5238;43.508;4.980;2023-04-08T13:59:07;22.10;88.60
10384;DHT22;5238;43.508;4.980;2023-04-08T14:30:08;21.40;91.30
10384;DHT22;5238;43.508;4.980;2023-04-08T14:32:36;21.30;91.30
10384;DHT22;5238;43.508;4.980;2023-04-08T14:35:03;21.20;91.30
10384;DHT22;5238;43.508;4.980;2023-04-08T14:37:32;21.20;91.30
10384;DHT22;5238;43.508;4.980;2023-04-08T14:39:59;21.10;91.30
10384;DHT22;5238;43.508;4.980;2023-04-08T14:42:27;21.00;91.30
10384;DHT22;5238;43.508;4.980;2023-04-08T14:44:55;21.00;91.30
10384;DHT22;5238;43.508;4.980;2023-04-08T14:47:24;21.00;91.30
10384;DHT22;5238;43.508;4.980;2023-04-08T14:49:51;21.00;91.30
10384;DHT22;5238;43.508;4.980;2023-04-08T14:52:18;21.00;91.30
10384;DHT22;5238;43.508;4.980;2023-04-08T14:54:47;21.00;91.30
10384;DHT22;5238;43.508;4.980;2023-04-08T14:57:14;20.90;91.30
10384;DHT22;5238;43.508;4.980;2023-04-08T14:59:44;20.90;91.30
10384;DHT22;5238;43.508;4.980;2023-04-08T15:02:11;20.90;91.30
10384;DHT22;5238;43.508;4.980;2023-04-08T15:04:40;20.90;91.30
10384;DHT22;5238;43.508;4.980;2023-04-08T15:17:14;20.70;91.30
10384;DHT22;5238;43.508;4.980;2023-04-08T15:19:45;20.70;91.30
10384;DHT22;5238;43.508;4.980;2023-04-08T15:22:12;20.70;91.30
10384;DHT22;5238;43.508;4.980;2023-04-08T15:24:41;20.60;91.30
10384;DHT22;5238;43.508;4.980;2023-04-08T15:27:08;20.60;91.30
10384;DHT22;5238;43.508;4.980;2023-04-08T15:29:36;20.60;91.30
10384;DHT22;5238;43.508;4.980;2023-04-08T15:32:03;20.60;91.30
10384;DHT22;5238;43.508;4.980;2023-04-08T15:34:31;20.60;91.30
10384;DHT22;5238;43.508;4.980;2023-04-08T15:37:00;20.50;91.30
10384;DHT22;5238;43.508;4.980;2023-04-08T15:39:27;20.40;91.30
10384;DHT22;5238;43.508;4.980;2023-04-08T15:41:56;20.40;91.30
10384;DHT22;5238;43.508;4.980;2023-04-08T15:44:29;20.30;91.30
10384;DHT22;5238;43.508;4.980;2023-04-08T15:47:00;20.20;91.30
10384;DHT22;5238;43.508;4.980;2023-04-08T15:49:27;20.20;91.30
10384;DHT22;5238;43.508;4.980;2023-04-08T15:51:55;20.10;91.30
10384;DHT22;5238;43.508;4.980;2023-04-08T15:54:27;20.00;91.30
10384;DHT22;5238;43.508;4.980;2023-04-08T15:56:57;19.90;91.30
10384;DHT22;5238;43.508;4.980;2023-04-08T15:59:25;19.80;91.30
10384;DHT22;5238;43.508;4.980;2023-04-08T16:02:02;19.80;91.30
10384;DHT22;5238;43.508;4.980;2023-04-08T16:04:34;19.80;91.30
10384;DHT22;5238;43.508;4.980;2023-04-08T16:07:03;19.80;91.30
10384;DHT22;5238;43.508;4.980;2023-04-08T16:09:31;19.80;91.30
10384;DHT22;5238;43.508;4.980;2023-04-08T16:11:58;19.80;91.30
10384;DHT22;5238;43.508;4.980;2023-04-08T16:14:25;19.90;91.30
10384;DHT22;5238;43.508;4.980;2023-04-08T16:16:53;19.90;91.30
10384;DHT22;5238;43.508;4.980;2023-04-08T16:19:20;19.90;91.30
10384;DHT22;5238;43.508;4.980;2023-04-08T16:21:47;19.90;91.30
10384;DHT22;5238;43.508;4.980;2023-04-08T16:24:18;19.80;91.30
10384;DHT22;5238;43.508;4.980;2023-04-08T16:26:47;19.80;91.30
10384;DHT22;5238;43.508;4.980;2023-04-08T16:29:28;19.80;91.30
10384;DHT22;5238;43.508;4.980;2023-04-08T16:31:57;19.70;91.30
10384;DHT22;5238;43.508;4.980;2023-04-08T16:34:25;19.70;91.30
10384;DHT22;5238;43.508;4.980;2023-04-08T16:36:53;19.60;91.30
10384;DHT22;5238;43.508;4.980;2023-04-08T16:39:20;19.60;91.30
10384;DHT22;5238;43.508;4.980;2023-04-08T16:41:48;19.50;91.30
10384;DHT22;5238;43.508;4.980;2023-04-08T16:44:18;19.50;91.30
10384;DHT22;5238;43.508;4.980;2023-04-08T16:46:46;19.50;91.30
10384;DHT22;5238;43.508;4.980;2023-04-08T16:49:13;19.60;91.30
10384;DHT22;5238;43.508;4.980;2023-04-08T16:51:40;19.60;91.30
10384;DHT22;5238;43.508;4.980;2023-04-08T16:54:09;19.60;91.30
10384;DHT22;5238;43.508;4.980;2023-04-08T16:56:36;19.70;91.30
10384;DHT22;5238;43.508;4.980;2023-04-08T16:59:29;19.70;91.30
10384;DHT22;5238;43.508;4.980;2023-04-08T17:01:56;19.70;91.30
10384;DHT22;5238;43.508;4.980;2023-04-08T17:04:24;19.70;91.30
10384;DHT22;5238;43.508;4.980;2023-04-08T17:06:51;19.60;91.30
10384;DHT22;5238;43.508;4.980;2023-04-08T17:09:20;19.50;91.30
10384;DHT22;5238;43.508;4.980;2023-04-08T17:11:47;19.50;91.30
10384;DHT22;5238;43.508;4.980;2023-04-08T17:14:14;19.50;91.30
10384;DHT22;5238;43.508;4.980;2023-04-08T17:16:43;19.50;91.30
10384;DHT22;5238;43.508;4.980;2023-04-08T17:19:19;19.60;91.30
10384;DHT22;5238;43.508;4.980;2023-04-08T17:21:47;19.60;91.30
10384;DHT22;5238;43.508;4.980;2023-04-08T17:24:17;19.60;91.30
10384;DHT22;5238;43.508;4.980;2023-04-08T17:26:46;19.70;91.30
10384;DHT22;5238;43.508;4.980;2023-04-08T17:29:15;19.70;91.30
10384;DHT22;5238;43.508;4.980;2023-04-08T17:31:45;19.70;91.30
10384;DHT22;5238;43.508;4.980;2023-04-08T17:34:15;19.70;91.30
10384;DHT22;5238;43.508;4.980;2023-04-08T17:36:51;19.60;91.30
10384;DHT22;5238;43.508;4.980;2023-04-08T17:39:18;19.50;91.30
10384;DHT22;5238;43.508;4.980;2023-04-08T17:41:45;19.50;91.30
10384;DHT22;5238;43.508;4.980;2023-04-08T17:44:12;19.40;91.30
10384;DHT22;5238;43.508;4.980;2023-04-08T17:46:39;19.40;91.30
10384;DHT22;5238;43.508;4.980;2023-04-08T17:49:23;19.30;91.30
10384;DHT22;5238;43.508;4.980;2023-04-08T17:51:52;19.20;91.30
10384;DHT22;5238;43.508;4.980;2023-04-08T17:54:21;19.20;91.30
10384;DHT22;5238;43.508;4.980;2023-04-08T17:56:50;19.10;91.30
10384;DHT22;5238;43.508;4.980;2023-04-08T17:59:18;19.00;91.30
10384;DHT22;5238;43.508;4.980;2023-04-08T18:01:46;19.00;91.30
10384;DHT22;5238;43.508;4.980;2023-04-08T18:04:13;18.80;91.30
10384;DHT22;5238;43.508;4.980;2023-04-08T18:06:42;18.70;91.30
10384;DHT22;5238;43.508;4.980;2023-04-08T18:09:14;18.60;91.30
10384;DHT22;5238;43.508;4.980;2023-04-08T18:11:41;18.50;91.30
10384;DHT22;5238;43.508;4.980;2023-04-08T18:14:09;18.40;91.30
10384;DHT22;5238;43.508;4.980;2023-04-08T18:16:39;18.30;91.30
10384;DHT22;5238;43.508;4.980;2023-04-08T18:19:06;18.20;91.30
10384;DHT22;5238;43.508;4.980;2023-04-08T18:21:33;18.10;91.30
10384;DHT22;5238;43.508;4.980;2023-04-08T18:24:04;18.10;91.30
10384;DHT22;5238;43.508;4.980;2023-04-08T18:26:31;18.00;91.30
10384;DHT22;5238;43.508;4.980;2023-04-08T18:28:58;17.90;91.30
10384;DHT22;5238;43.508;4.980;2023-04-08T18:31:25;17.90;91.30
10384;DHT22;5238;43.508;4.980;2023-04-08T18:33:57;17.80;91.30
10384;DHT22;5238;43.508;4.980;2023-04-08T18:36:28;17.70;91.30
10384;DHT22;5238;43.508;4.980;2023-04-08T18:38:58;17.70;91.30
10384;DHT22;5238;43.508;4.980;2023-04-08T18:41:30;17.60;91.30
10384;DHT22;5238;43.508;4.980;2023-04-08T18:43:58;17.60;91.30
10384;DHT22;5238;43.508;4.980;2023-04-08T18:46:30;17.50;91.30
10384;DHT22;5238;43.508;4.980;2023-04-08T18:48:58;17.50;91.30
10384;DHT22;5238;43.508;4.980;2023-04-08T18:51:29;17.40;91.30
10384;DHT22;5238;43.508;4.980;2023-04-08T18:53:56;17.30;91.30
10384;DHT22;5238;43.508;4.980;2023-04-08T18:56:24;17.20;91.30
10384;DHT22;5238;43.508;4.980;2023-04-08T18:58:55;17.20;91.30
10384;DHT22;5238;43.508;4.980;2023-04-08T19:01:23;17.10;91.30
10384;DHT22;5238;43.508;4.980;2023-04-08T19:03:50;17.10;91.30
10384;DHT22;5238;43.508;4.980;2023-04-08T19:06:20;17.00;91.30
10384;DHT22;5238;43.508;4.980;2023-04-08T19:08:47;17.00;91.30
10384;DHT22;5238;43.508;4.980;2023-04-08T19:11:20;16.90;91.30
10384;DHT22;5238;43.508;4.980;2023-04-08T19:14:28;16.90;91.30
10384;DHT22;5238;43.508;4.980;2023-04-08T19:17:18;16.80;91.30
10384;DHT22;5238;43.508;4.980;2023-04-08T19:19:46;16.70;91.30
10384;DHT22;5238;43.508;4.980;2023-04-08T19:25:10;16.70;91.30
10384;DHT22;5238;43.508;4.980;2023-04-08T19:27:37;16.60;91.30
10384;DHT22;5238;43.508;4.980;2023-04-08T19:30:27;16.50;91.30
10384;DHT22;5238;43.508;4.980;2023-04-08T19:32:57;16.50;91.30
10384;DHT22;5238;43.508;4.980;2023-04-08T19:35:41;16.40;91.30
10384;DHT22;5238;43.508;4.980;2023-04-08T19:38:10;16.30;91.30
10384;DHT22;5238;43.508;4.980;2023-04-08T19:40:38;16.30;91.30
10384;DHT22;5238;43.508;4.980;2023-04-08T19:43:12;16.20;91.30
10384;DHT22;5238;43.508;4.980;2023-04-08T19:45:52;16.20;91.30
10384;DHT22;5238;43.508;4.980;2023-04-08T19:48:22;16.20;91.30
10384;DHT22;5238;43.508;4.980;2023-04-08T19:50:49;16.10;91.30
10384;DHT22;5238;43.508;4.980;2023-04-08T19:53:23;16.10;91.30
10384;DHT22;5238;43.508;4.980;2023-04-08T19:56:15;16.10;91.30
10384;DHT22;5238;43.508;4.980;2023-04-08T19:58:57;16.10;91.30
10384;DHT22;5238;43.508;4.980;2023-04-08T20:01:30;16.10;91.30
10384;DHT22;5238;43.508;4.980;2023-04-08T20:04:00;16.10;91.30
10384;DHT22;5238;43.508;4.980;2023-04-08T20:06:27;16.10;91.30
10384;DHT22;5238;43.508;4.980;2023-04-08T20:08:57;16.10;91.30
10384;DHT22;5238;43.508;4.980;2023-04-08T20:11:30;16.10;91.30
10384;DHT22;5238;43.508;4.980;2023-04-08T20:14:04;16.10;91.30
10384;DHT22;5238;43.508;4.980;2023-04-08T20:16:37;16.10;91.30
10384;DHT22;5238;43.508;4.980;2023-04-08T20:19:13;16.10;91.30
10384;DHT22;5238;43.508;4.980;2023-04-08T20:21:45;16.00;91.30
10384;DHT22;5238;43.508;4.980;2023-04-08T20:24:12;16.00;91.30
10384;DHT22;5238;43.508;4.980;2023-04-08T20:26:42;16.00;91.30
10384;DHT22;5238;43.508;4.980;2023-04-08T20:29:09;16.00;91.30
10384;DHT22;5238;43.508;4.980;2023-04-08T20:31:39;16.00;91.30
10384;DHT22;5238;43.508;4.980;2023-04-08T20:34:08;16.00;91.30
10384;DHT22;5238;43.508;4.980;2023-04-08T20:36:35;15.90;91.30
10384;DHT22;5238;43.508;4.980;2023-04-08T20:39:05;15.90;91.30
10384;DHT22;5238;43.508;4.980;2023-04-08T20:41:36;15.90;91.30
10384;DHT22;5238;43.508;4.980;2023-04-08T20:44:07;15.90;91.30
10384;DHT22;5238;43.508;4.980;2023-04-08T20:46:42;15.90;91.30
10384;DHT22;5238;43.508;4.980;2023-04-08T20:49:10;15.90;91.30
10384;DHT22;5238;43.508;4.980;2023-04-08T20:51:37;15.90;91.30
10384;DHT22;5238;43.508;4.980;2023-04-08T20:54:04;15.90;91.30
10384;DHT22;5238;43.508;4.980;2023-04-08T20:56:34;15.90;91.30
10384;DHT22;5238;43.508;4.980;2023-04-08T20:59:01;15.90;91.30
10384;DHT22;5238;43.508;4.980;2023-04-08T21:01:28;15.90;91.30
10384;DHT22;5238;43.508;4.980;2023-04-08T21:04:01;15.90;91.30
10384;DHT22;5238;43.508;4.980;2023-04-08T21:06:30;16.00;91.30
10384;DHT22;5238;43.508;4.980;2023-04-08T21:08:59;16.00;91.30
10384;DHT22;5238;43.508;4.980;2023-04-08T21:11:28;16.00;91.30
10384;DHT22;5238;43.508;4.980;2023-04-08T21:13:58;16.00;91.30
10384;DHT22;5238;43.508;4.980;2023-04-08T21:16:27;16.00;91.30
10384;DHT22;5238;43.508;4.980;2023-04-08T21:18:55;16.00;91.30